Harare, Zimbabwe
Current Conditions -  °F | °C
As of 12:00 PM on Friday 24 Oct 2014 (Local Time) from FVHA Reporting Station
Clear Clear  
Wind Chill: 84°   Ceiling: Unl
Heat Index: 84°   Visibility: 6mi
Dew Point: 45°   Wind: 6mph
Humidity: 25%   Direction: NA
Pressure: 30.15"   Gusts: NA
Location:  17.82°S, 31.05°E
Report Text: FVHA 241000Z VRB05KT CAVOK 29/07 Q1021 NOSIG RMK QFE 853.0
Loading
Personal Weather Stations






























Interactive Weather Map
Tropical Storm Tracking
New forecast layout! Learn more

10-Day Weather Forecast

Advertisements
Track Severe Weather on mobile